Bolling Air Force Base


Codes: BOF/BOF
Name: Bolling Air Force Base
City: Washington
Country: United States
Elevation: 20 ft.
Wikipedia:

Photos at Bolling Air Force Base


   Photos courtesy of SpottingLog. You can add your own sightings and photos by signing up for a free trial today.



No photos found.

Weather at Bolling Air Force Base


Time (UTC)DescriptionTempratureWindCloud coverageVisibilityPressureHumidity
17-Jun-2024 06:00Overcast Clouds23°C7 mph, S100%10000m1020hPa65%
17-Jun-2024 09:00Broken Clouds22°C7 mph, S78%10000m1021hPa67%
17-Jun-2024 12:00Scattered Clouds22°C9 mph, S45%10000m1022hPa65%
17-Jun-2024 15:00Clear Sky29°C9 mph, S4%10000m1022hPa51%
17-Jun-2024 18:00Clear Sky33°C9 mph, S5%10000m1020hPa41%
17-Jun-2024 21:00Overcast Clouds30°C7 mph, SE91%10000m1019hPa51%
18-Jun-2024 00:00Broken Clouds27°C9 mph, SE74%10000m1020hPa61%
18-Jun-2024 03:00Broken Clouds23°C7 mph, SE54%10000m1021hPa68%
18-Jun-2024 06:00Scattered Clouds22°C7 mph, S48%10000m1022hPa69%
18-Jun-2024 09:00Clear Sky20°C4 mph, S3%10000m1023hPa74%
18-Jun-2024 12:00Clear Sky23°C7 mph, S5%10000m1024hPa64%
18-Jun-2024 15:00Clear Sky30°C7 mph, S5%10000m1024hPa46%
18-Jun-2024 18:00Clear Sky34°C9 mph, S5%10000m1023hPa39%
18-Jun-2024 21:00Clear Sky34°C9 mph, SE8%10000m1022hPa37%
19-Jun-2024 00:00Clear Sky27°C9 mph, SE7%10000m1024hPa54%
19-Jun-2024 03:00Clear Sky23°C7 mph, SE6%10000m1025hPa63%
19-Jun-2024 06:00Scattered Clouds20°C4 mph, S39%10000m1026hPa82%
19-Jun-2024 09:00Scattered Clouds19°C4 mph, S29%10000m1026hPa84%
19-Jun-2024 12:00Scattered Clouds23°C4 mph, SW36%10000m1027hPa68%
19-Jun-2024 15:00Overcast Clouds30°C4 mph, SE92%10000m1028hPa41%
19-Jun-2024 18:00Broken Clouds33°C7 mph, SE75%10000m1026hPa32%
19-Jun-2024 21:00Overcast Clouds32°C9 mph, SE95%10000m1025hPa33%
20-Jun-2024 00:00Broken Clouds27°C7 mph, SE66%10000m1025hPa53%
20-Jun-2024 03:00Clear Sky21°C4 mph, S9%10000m1027hPa74%
20-Jun-2024 06:00Clear Sky20°C4 mph, S5%10000m1027hPa86%
20-Jun-2024 09:00Clear Sky18°C2 mph, S2%10000m1027hPa90%
20-Jun-2024 12:00Clear Sky23°C4 mph, S1%10000m1028hPa68%
20-Jun-2024 15:00Clear Sky29°C4 mph, S0%10000m1027hPa42%
20-Jun-2024 18:00Clear Sky34°C7 mph, SE0%10000m1025hPa30%
20-Jun-2024 21:00Clear Sky34°C9 mph, SE0%10000m1024hPa30%
21-Jun-2024 00:00Scattered Clouds27°C7 mph, SE44%10000m1024hPa51%
21-Jun-2024 03:00Overcast Clouds22°C4 mph, S100%10000m1025hPa73%
21-Jun-2024 06:00Broken Clouds20°C4 mph, SW57%10000m1025hPa81%
21-Jun-2024 09:00Broken Clouds19°C4 mph, SW72%10000m1024hPa83%
21-Jun-2024 12:00Overcast Clouds23°C4 mph, SW86%10000m1025hPa67%
21-Jun-2024 15:00Overcast Clouds30°C4 mph, S100%10000m1024hPa44%
21-Jun-2024 18:00Overcast Clouds34°C7 mph, S100%10000m1021hPa31%
21-Jun-2024 21:00Overcast Clouds34°C9 mph, S100%10000m1020hPa31%
22-Jun-2024 00:00Overcast Clouds28°C7 mph, S100%10000m1019hPa53%
22-Jun-2024 03:00Overcast Clouds24°C4 mph, S100%10000m1020hPa67%